Station: Coonawarra  

  Atmospheric Gas Attenuation - ITU Rec 676-11   ----------------- dB/100km -----------------
Date Time Temp RH % AH g/m3 Dew Point Wind Direction Speed kph Gust kph Barometer mB Rainfall Since 9am 24GHz 47GHz 76GHz 122GHz 134GHz 241GHz
04/05 14:30 14.3 87 10.69 12.2 26 37 1010.3 1.8 24.0 29.1 48.1 126.5 125.9 434.9
04/05 14:20 14.6 85 10.64 12.1 32 37 1010.1 1.6 23.9 28.9 47.7 125.5 124.7 430.7
04/05 14:10 16.1 80 10.97 12.7 30 33 1009.7 1.4 24.5 29.0 48.1 126.7 126.8 438.2
04/05 14:00 15.4 83 10.9 12.5 24 33 1009.6 1.4 24.4 29.1 48.2 127.1 127.0 438.7
04/05 13:50 14.5 83 10.32 11.6 30 35 1009.7 1.4 23.2 28.4 46.3 122.0 120.4 415.5
04/05 13:40 14.7 88 11.08 12.7 11 13 1009.5 1.2 24.9 29.6 49.5 130.3 130.7 451.6
04/05 13:30 14.2 89 10.87 12.4 20 30 1009.5 1.2 24.4 29.4 48.9 128.7 128.6 444.1
04/05 13:20 14.3 88 10.81 12.3 20 26 1009.4 1.2 24.3 29.3 48.5 127.8 127.5 440.5
04/05 13:10 14.4 88 10.88 12.4 24 30 1009.4 1.2 24.5 29.4 48.8 128.5 128.4 443.4
04/05 13:00 14.3 89 10.93 12.5 20 30 1009.3 1.2 24.6 29.5 49.0 129.2 129.2 446.4
04/05 12:50 15 84 10.77 12.3 20 26 1009.1 0.2 24.2 29.0 47.9 126.2 125.8 434.5
04/05 12:40 14.9 85 10.83 12.4 22 26 1009.1 0.2 24.3 29.1 48.2 127.0 126.8 438.0
04/05 12:30 14.5 84 10.45 11.8 24 33 1009.2 0.2 23.5 28.6 46.9 123.4 122.1 421.7
04/05 12:20 14.6 83 10.39 11.7 33 43 1009 0.2 23.4 28.5 46.5 122.5 121.1 418.1
04/05 12:10 14.8 83 10.51 11.9 26 33 1009 0.2 23.6 28.6 46.9 123.5 122.5 422.9
04/05 12:00 15.8 86 11.58 13.5 30 41 1009 0.2 25.9 30.1 50.9 134.1 135.8 469.6
04/05 11:50 15.5 88 11.63 13.5 19 24 1008.9 0.2 26.0 30.3 51.3 135.2 137.1 473.9
04/05 11:40 14.8 89 11.27 13 24 33 1009.1 0.2 25.3 29.9 50.2 132.2 133.2 460.3
04/05 11:30 14.7 88 11.08 12.7 30 41 1009.1 0.2 24.9 29.6 49.4 130.2 130.7 451.4
04/05 11:20 15 86 11.03 12.7 30 39 1008.9 0 24.7 29.4 49.0 129.1 129.4 447.2
04/05 11:10 16.3 78 10.82 12.5 32 37 1008.7 0 24.2 28.6 47.3 124.6 124.3 429.5
04/05 11:00 15.2 82 10.64 12.2 24 35 1008.6 0 23.9 28.7 47.2 124.3 123.6 426.9
04/05 10:50 15.4 80 10.51 12 24 35 1008.5 0 23.6 28.4 46.5 122.5 121.5 419.5
04/05 10:40 16.2 79 10.89 12.6 32 39 1008.5 0 24.4 28.8 47.7 125.5 125.4 433.4
04/05 10:30 16.2 75 10.34 11.8 26 44 1008.4 0 23.2 27.8 45.4 119.4 117.9 407.1
04/05 10:20 16.2 79 10.89 12.6 33 43 1008.4 0 24.4 28.8 47.7 125.5 125.4 433.3
04/05 10:10 15.6 84 11.17 12.9 32 39 1008.4 0 25.0 29.4 49.2 129.7 130.3 450.4
04/05 10:00 15.5 85 11.24 13 26 39 1008.4 0 25.2 29.6 49.6 130.6 131.5 454.4
04/05 09:50 15.2 85 11.03 12.7 32 37 1008.2 0 24.7 29.3 48.9 128.7 129.0 445.8
04/05 09:40 14.8 89 11.27 13 28 37 1008.1 0 25.3 29.9 50.1 132.1 133.1 459.9
04/05 09:30 14.9 90 11.47 13.3 22 35 1008.1 0 25.7 30.2 50.9 134.3 135.8 469.3
04/05 09:20 14.8 89 11.27 13 22 26 1008.1 0 25.3 29.9 50.1 132.1 133.1 459.9
04/05 09:10 14.8 90 11.4 13.2 24 35 1008 0 25.6 30.1 50.7 133.6 134.9 466.4
04/05 09:00 14.4 93 11.5 13.3 24 35 1008.1 0 25.8 30.4 51.4 135.5 137.1 473.9
04/05 08:50 14.1 92 11.17 12.8 24 30 1008.1 1.2 25.1 29.9 50.2 132.2 132.9 459.1
04/05 08:40 14 93 11.22 12.9 26 30 1007.9 1.2 25.2 30.1 50.4 132.9 133.8 462.2
04/05 08:30 13.5 94 11 12.6 22 33 1007.8 1.2 24.8 29.8 49.8 131.2 131.5 454.1
04/05 08:20 13.5 94 11 12.6 19 20 1007.7 1.2 24.8 29.8 49.8 131.2 131.4 454.0
04/05 08:10 13 95 10.77 12.2 24 28 1007.5 1.2 24.3 29.6 49.1 129.3 129.0 445.3
04/05 08:00 12.8 95 10.64 12 24 41 1007.4 1.2 24.0 29.4 48.6 128.1 127.4 439.9
04/05 07:50 12.7 95 10.58 11.9 17 24 1007.4 1.2 23.9 29.4 48.4 127.6 126.7 437.5
04/05 07:40 12.6 95 10.51 11.8 24 33 1007.3 1.2 23.8 29.3 48.2 126.9 125.9 434.5
04/05 07:30 12.6 94 10.4 11.7 26 39 1007.2 1 23.5 29.1 47.7 125.6 124.3 429.0
04/05 07:20 12.5 94 10.34 11.6 20 24 1007.1 1 23.4 29.0 47.5 125.1 123.6 426.5
04/05 07:10 12.2 95 10.25 11.4 26 35 1007 1 23.2 28.9 47.3 124.5 122.8 423.7
04/05 07:00 11.9 95 10.06 11.1 24 39 1007 1 22.8 28.7 46.6 122.8 120.6 415.9
04/05 06:50 12 95 10.13 11.2 28 35 1006.8 1 23.0 28.8 46.9 123.4 121.4 418.7
04/05 06:40 12.1 94 10.08 11.2 24 30 1006.8 1 22.9 28.7 46.6 122.7 120.5 415.7
04/05 06:30 12 94 10.02 11.1 28 41 1006.7 1 22.7 28.6 46.4 122.1 119.8 413.2
04/05 06:20 12.1 94 10.08 11.2 28 37 1006.7 1 22.9 28.7 46.6 122.7 120.5 415.7
04/05 06:10 12 94 10.02 11.1 26 35 1006.7 1 22.7 28.6 46.4 122.1 119.8 413.2
04/05 06:00 11.9 94 9.96 11 24 35 1006.7 1 22.6 28.5 46.2 121.6 119.1 410.8
04/05 05:50 11.9 94 9.96 11 24 32 1006.7 1 22.6 28.5 46.2 121.6 119.1 410.8
04/05 05:40 11.9 93 9.85 10.8 28 35 1006.7 1 22.4 28.3 45.7 120.3 117.6 405.4
04/05 05:30 12.1 93 9.97 11 28 41 1006.6 1 22.6 28.5 46.1 121.4 118.9 410.2
04/05 05:20 12.1 92 9.87 10.8 22 32 1006.6 1 22.4 28.3 45.7 120.2 117.5 405.3
04/05 05:10 12.1 93 9.97 11 30 37 1006.6 1 22.6 28.5 46.1 121.4 118.9 410.2
04/05 05:00 12.1 94 10.08 11.2 30 43 1006.6 1 22.9 28.6 46.6 122.6 120.5 415.6
04/05 04:50 12 94 10.02 11.1 30 37 1006.6 1 22.7 28.6 46.4 122.1 119.8 413.2
04/05 04:40 12.2 92 9.93 10.9 33 44 1006.6 1 22.5 28.4 45.9 120.8 118.2 407.7
04/05 04:30 12.3 91 9.88 10.9 28 43 1006.7 0.4 22.4 28.2 45.6 120.0 117.4 404.7
04/05 04:20 12.2 91 9.82 10.8 35 41 1006.6 0.4 22.3 28.2 45.4 119.5 116.7 402.3
04/05 04:10 12.3 90 9.77 10.7 30 39 1006.6 0.4 22.2 28.0 45.1 118.8 115.8 399.3
04/05 04:00 12.3 90 9.77 10.7 32 44 1006.6 0.4 22.2 28.0 45.1 118.8 115.8 399.3
04/05 03:50 12.7 86 9.57 10.4 24 32 1006.5 0.2 21.7 27.6 44.1 115.9 112.4 387.5
04/05 03:40 13.2 81 9.3 10 30 35 1006.5 0.2 21.1 27.0 42.7 112.2 108.0 372.1
04/05 03:30 13.1 82 9.36 10.1 30 44 1006.6 0.2 21.3 27.1 43.0 113.0 109.0 375.5
04/05 03:20 13 82 9.3 10 28 35 1006.6 0.2 21.1 27.0 42.8 112.5 108.3 373.1
04/05 03:10 13 82 9.3 10 28 43 1006.6 0.2 21.1 27.0 42.8 112.5 108.3 373.1
04/05 03:00 12.9 83 9.36 10.1 32 46 1006.7 0.2 21.3 27.2 43.1 113.3 109.3 376.5
04/05 02:50 13.1 82 9.36 10.1 41 50 1006.8 0.2 21.3 27.1 43.0 113.0 109.0 375.5
04/05 02:40 12.9 83 9.36 10.1 28 37 1006.9 0.2 21.3 27.2 43.1 113.3 109.3 376.5
04/05 02:30 13.2 81 9.3 10 33 50 1007.1 0.2 21.1 27.0 42.7 112.2 108.1 372.3
04/05 02:20 13.4 80 9.3 10 35 48 1007.3 0.2 21.1 26.9 42.6 112.0 107.8 371.4
04/05 02:10 13.2 80 9.19 9.8 30 39 1007.3 0.2 20.9 26.8 42.2 111.0 106.6 367.1
04/05 02:00 13.1 81 9.24 9.9 28 41 1007.5 0.2 21.0 26.9 42.5 111.8 107.4 370.0
04/05 01:50 13 82 9.3 10 28 37 1007.6 0.2 21.1 27.1 42.8 112.6 108.4 373.4
04/05 01:40 13.1 82 9.36 10.1 33 44 1007.7 0.2 21.3 27.1 43.0 113.1 109.1 375.8
04/05 01:30 13.5 79 9.24 9.9 30 44 1007.7 0.2 21.0 26.8 42.3 111.2 106.9 368.2
04/05 01:20 13.5 78 9.12 9.7 32 46 1007.7 0.2 20.7 26.6 41.8 109.9 105.3 362.5
04/05 01:10 13.6 79 9.3 10 30 39 1007.6 0.2 21.1 26.9 42.5 111.7 107.5 370.5
04/05 01:00 13.5 79 9.24 9.9 26 37 1007.7 0.2 21.0 26.8 42.3 111.2 106.9 368.2
04/05 00:50 13.5 79 9.24 9.9 26 32 1007.8 0.2 21.0 26.8 42.3 111.2 106.9 368.2
04/05 00:40 13.4 79 9.18 9.8 20 28 1007.8 0.2 20.9 26.8 42.1 110.7 106.2 365.9
04/05 00:30 13.3 79 9.13 9.7 28 41 1007.8 0.2 20.8 26.7 42.0 110.3 105.7 364.0
04/05 00:20 13.1 81 9.24 9.9 28 35 1007.9 0.2 21.0 27.0 42.5 111.8 107.5 370.2
04/05 00:10 13 80 9.07 9.6 24 32 1007.9 0.2 20.6 26.7 41.9 110.1 105.3 362.6
04/05 00:00 12.9 81 9.13 9.7 26 39 1008 0.2 20.8 26.8 42.2 110.9 106.2 365.9
03/05 23:50 13 81 9.19 9.8 28 33 1008 0.2 20.9 26.9 42.4 111.4 106.9 368.3
03/05 23:40 13.1 80 9.13 9.7 28 35 1008 0.2 20.8 26.8 42.1 110.6 106.0 365.0
03/05 23:30 13 81 9.19 9.8 24 37 1008.1 0.2 20.9 26.9 42.4 111.4 106.9 368.3
03/05 23:20 13 81 9.19 9.8 22 30 1008.3 0.2 20.9 26.9 42.4 111.4 107.0 368.4
03/05 23:10 13.2 81 9.3 10 26 30 1008.5 0.2 21.1 27.0 42.7 112.4 108.2 372.7
03/05 23:00 13.2 81 9.3 10 26 39 1008.7 0.2 21.1 27.1 42.8 112.4 108.2 372.8
03/05 22:50 13.1 81 9.24 9.9 24 32 1008.9 0.2 21.0 27.0 42.6 111.9 107.5 370.4
03/05 22:40 13.2 81 9.3 10 26 33 1009 0.2 21.1 27.1 42.8 112.4 108.2 372.9
03/05 22:30 13.2 81 9.3 10 22 32 1009 0.2 21.1 27.1 42.8 112.4 108.2 372.9
03/05 22:20 13.4 80 9.3 10 24 28 1009.2 0.2 21.1 27.0 42.7 112.2 108.0 372.0
03/05 22:10 13.6 79 9.3 10 26 32 1009.2 0.2 21.1 26.9 42.6 111.9 107.7 371.0
03/05 22:00 13.8 78 9.29 10 26 37 1009.3 0.2 21.1 26.9 42.4 111.5 107.3 369.6

Last Refresh: 04-May-2026 14:44:29

Bureau of Meteorology